createdAt,value
2019-03-31T00:00:09.456Z,8.45
2019-03-31T00:01:09.442Z,8.47
2019-03-31T00:02:09.364Z,8.47
2019-03-31T00:03:09.328Z,8.43
2019-03-31T00:04:09.286Z,8.34
2019-03-31T00:05:09.235Z,8.23
2019-03-31T00:06:09.215Z,8.33
2019-03-31T00:07:09.149Z,8.38
2019-03-31T00:08:09.105Z,8.40
2019-03-31T00:09:09.074Z,8.34
2019-03-31T00:10:09.034Z,8.26
2019-03-31T00:11:09.026Z,8.22
2019-03-31T00:12:08.942Z,8.34
2019-03-31T00:13:08.915Z,8.18
2019-03-31T00:14:08.861Z,8.16
2019-03-31T00:15:08.815Z,8.11
2019-03-31T00:16:08.787Z,8.20
2019-03-31T00:17:08.749Z,8.29
2019-03-31T00:18:08.682Z,8.34
2019-03-31T00:19:08.662Z,8.26
2019-03-31T00:20:08.602Z,8.26
2019-03-31T00:21:08.557Z,8.34
2019-03-31T00:22:08.554Z,8.44
2019-03-31T00:23:08.478Z,8.43
2019-03-31T00:24:08.429Z,8.43
2019-03-31T00:25:08.379Z,8.36
2019-03-31T00:26:08.342Z,8.37
2019-03-31T00:27:08.325Z,8.45
2019-03-31T00:28:08.252Z,8.44
2019-03-31T00:29:08.238Z,8.44
2019-03-31T00:30:08.192Z,8.43
2019-03-31T00:31:21.222Z,8.36
2019-03-31T00:32:08.094Z,8.29
2019-03-31T00:33:08.043Z,8.26
2019-03-31T00:34:08.021Z,8.33
2019-03-31T00:35:07.968Z,8.30
2019-03-31T00:36:07.920Z,8.22
2019-03-31T00:37:08.001Z,8.20
2019-03-31T00:38:07.853Z,8.11
2019-03-31T00:39:07.797Z,8.11
2019-03-31T00:40:07.738Z,8.07
2019-03-31T00:41:07.701Z,8.00
2019-03-31T00:42:07.690Z,8.04
2019-03-31T00:43:07.622Z,8.00
2019-03-31T00:44:07.620Z,7.87
2019-03-31T00:45:07.522Z,7.93
2019-03-31T00:46:07.482Z,7.82
2019-03-31T00:47:07.449Z,7.86
2019-03-31T00:48:07.429Z,7.83
2019-03-31T00:49:07.363Z,7.75
2019-03-31T00:50:07.322Z,7.82
2019-03-31T00:51:07.276Z,7.80
2019-03-31T00:52:07.232Z,7.85
2019-03-31T00:53:07.190Z,7.86
2019-03-31T00:54:07.181Z,7.86
2019-03-31T00:55:07.105Z,7.82
2019-03-31T00:56:07.067Z,7.80
2019-03-31T00:57:07.019Z,7.83
2019-03-31T00:58:06.976Z,7.69
2019-03-31T00:59:06.956Z,7.85
2019-03-31T01:00:06.891Z,7.72
2019-03-31T01:01:06.853Z,7.72
2019-03-31T01:02:06.803Z,7.79
2019-03-31T01:03:06.761Z,7.83
2019-03-31T01:04:06.748Z,7.77
2019-03-31T01:05:06.668Z,7.74
2019-03-31T01:06:06.627Z,7.74
2019-03-31T01:07:06.607Z,7.57
2019-03-31T01:08:06.552Z,7.57
2019-03-31T01:09:06.522Z,7.35
2019-03-31T01:10:06.467Z,7.50
2019-03-31T01:11:06.416Z,7.49
2019-03-31T01:12:06.369Z,7.55
2019-03-31T01:13:06.348Z,7.57
2019-03-31T01:14:06.313Z,7.68
2019-03-31T01:15:06.248Z,7.55
2019-03-31T01:16:06.203Z,7.55
2019-03-31T01:17:06.165Z,7.49
2019-03-31T01:18:06.106Z,7.37
2019-03-31T01:19:06.103Z,7.34
2019-03-31T01:20:06.026Z,7.39
2019-03-31T01:21:05.983Z,7.42
2019-03-31T01:22:05.944Z,7.40
2019-03-31T01:23:05.893Z,7.43
2019-03-31T01:24:05.890Z,7.48
2019-03-31T01:25:05.813Z,7.42
2019-03-31T01:26:05.772Z,7.40
2019-03-31T01:27:05.803Z,7.43
2019-03-31T01:28:05.685Z,7.40
2019-03-31T01:29:05.636Z,7.39
2019-03-31T01:30:05.632Z,7.46
2019-03-31T01:31:05.558Z,7.40
2019-03-31T01:32:05.511Z,7.49
2019-03-31T01:33:05.470Z,7.57
2019-03-31T01:34:05.451Z,7.61
2019-03-31T01:35:05.387Z,7.72
2019-03-31T01:36:05.340Z,7.60
2019-03-31T01:37:05.293Z,7.58
2019-03-31T01:38:05.251Z,7.80
2019-03-31T01:39:05.240Z,7.75
2019-03-31T01:40:05.168Z,7.85
2019-03-31T01:41:05.161Z,7.82
2019-03-31T01:42:05.074Z,7.83
2019-03-31T01:43:05.039Z,7.87
2019-03-31T01:44:05.018Z,7.83
2019-03-31T01:45:04.961Z,7.83
2019-03-31T01:46:04.915Z,7.87
2019-03-31T01:47:04.867Z,7.92
2019-03-31T01:48:04.849Z,7.92
2019-03-31T01:49:04.774Z,7.97
2019-03-31T01:50:04.760Z,7.89
2019-03-31T01:51:04.697Z,7.80
2019-03-31T01:52:04.646Z,7.87
2019-03-31T01:53:04.652Z,7.80
2019-03-31T01:54:04.568Z,7.82
2019-03-31T01:55:04.529Z,7.80
2019-03-31T01:56:04.485Z,7.77
2019-03-31T01:57:04.439Z,7.75
2019-03-31T01:58:04.395Z,7.75
2019-03-31T01:59:04.382Z,7.71
2019-03-31T02:00:04.309Z,7.74
2019-03-31T02:01:04.261Z,7.74
2019-03-31T02:02:04.838Z,7.71
2019-03-31T02:03:04.174Z,7.72
2019-03-31T02:04:04.163Z,7.74
2019-03-31T02:05:04.094Z,7.71
2019-03-31T02:06:04.049Z,7.69
2019-03-31T02:07:04.007Z,7.69
2019-03-31T02:08:03.968Z,7.74
2019-03-31T02:09:03.925Z,7.60
2019-03-31T02:10:03.908Z,7.71
2019-03-31T02:11:03.881Z,7.60
2019-03-31T02:12:03.800Z,7.60
2019-03-31T02:13:03.753Z,7.63
2019-03-31T02:14:03.727Z,7.61
2019-03-31T02:15:03.661Z,7.60
2019-03-31T02:16:03.626Z,7.57
2019-03-31T02:17:03.609Z,7.40
2019-03-31T02:18:03.539Z,7.37
2019-03-31T02:19:03.509Z,7.45
2019-03-31T02:20:03.452Z,7.39
2019-03-31T02:21:03.406Z,7.39
2019-03-31T02:22:03.365Z,7.37
2019-03-31T02:23:03.349Z,7.39
2019-03-31T02:24:03.284Z,7.32
2019-03-31T02:25:03.247Z,7.25
2019-03-31T02:26:03.196Z,7.31
2019-03-31T02:27:03.148Z,7.27
2019-03-31T02:28:03.101Z,7.27
2019-03-31T02:29:03.087Z,7.30
2019-03-31T02:30:03.033Z,7.27
2019-03-31T02:31:02.979Z,7.34
2019-03-31T02:32:02.943Z,7.24
2019-03-31T02:33:02.907Z,7.28
2019-03-31T02:34:02.844Z,7.27
2019-03-31T02:35:02.803Z,7.31
2019-03-31T02:36:02.761Z,7.32
2019-03-31T02:37:02.725Z,7.27
2019-03-31T02:38:02.698Z,7.27
2019-03-31T02:39:02.638Z,7.27
2019-03-31T02:40:02.622Z,7.27
2019-03-31T02:41:02.540Z,7.30
2019-03-31T02:42:02.521Z,7.23
2019-03-31T02:43:02.459Z,7.21
2019-03-31T02:44:02.494Z,7.24
2019-03-31T02:45:02.402Z,7.24
2019-03-31T02:46:02.339Z,7.13
2019-03-31T02:47:02.282Z,7.17
2019-03-31T02:48:02.243Z,7.23
2019-03-31T02:49:02.218Z,7.23
2019-03-31T02:50:02.169Z,7.27
2019-03-31T02:51:02.139Z,7.28
2019-03-31T02:52:02.083Z,7.25
2019-03-31T02:53:02.054Z,7.32
2019-03-31T02:54:01.978Z,7.34
2019-03-31T02:55:01.978Z,7.24
2019-03-31T02:56:02.026Z,7.23
2019-03-31T02:57:01.916Z,7.23
2019-03-31T02:58:01.826Z,7.20
2019-03-31T02:59:01.893Z,7.39
2019-03-31T03:00:01.767Z,7.28
2019-03-31T03:01:01.687Z,7.30
2019-03-31T03:02:01.690Z,7.28
2019-03-31T03:03:01.594Z,7.45
2019-03-31T03:04:01.599Z,7.55
2019-03-31T03:05:17.933Z,7.71
2019-03-31T03:06:01.463Z,7.75
2019-03-31T03:07:01.424Z,7.92
2019-03-31T03:08:01.402Z,8.11
2019-03-31T03:09:01.337Z,8.00
2019-03-31T03:10:01.294Z,8.11
2019-03-31T03:11:01.251Z,8.37
2019-03-31T03:12:01.230Z,8.50
2019-03-31T03:13:01.187Z,8.55
2019-03-31T03:14:01.124Z,8.71
2019-03-31T03:15:01.087Z,8.71
2019-03-31T03:16:01.039Z,8.91
2019-03-31T03:17:00.986Z,8.99
2019-03-31T03:18:00.942Z,9.21
2019-03-31T03:19:00.928Z,9.38
2019-03-31T03:20:00.866Z,9.50
2019-03-31T03:21:00.818Z,9.58
2019-03-31T03:22:00.777Z,9.66
2019-03-31T03:23:00.732Z,9.86
2019-03-31T03:24:00.721Z,9.99
2019-03-31T03:25:00.653Z,9.96
2019-03-31T03:26:00.624Z,9.99
2019-03-31T03:27:00.556Z,10.12
2019-03-31T03:28:00.520Z,10.17
2019-03-31T03:29:00.492Z,10.15
2019-03-31T03:30:00.704Z,10.15
2019-03-31T03:31:00.788Z,10.22
2019-03-31T03:32:00.341Z,10.23
2019-03-31T03:33:15.115Z,10.22
2019-03-31T03:34:00.293Z,10.25
2019-03-31T03:35:01.001Z,10.25
2019-03-31T03:36:00.182Z,10.36
2019-03-31T03:37:00.135Z,10.32
2019-03-31T03:38:00.085Z,10.30
2019-03-31T03:39:00.056Z,10.30
2019-03-31T03:40:00.027Z,10.34
2019-03-31T03:40:59.958Z,10.40
2019-03-31T03:41:59.951Z,10.44
2019-03-31T03:42:59.884Z,10.42
2019-03-31T03:44:02.342Z,10.34
2019-03-31T03:44:59.814Z,10.33
2019-03-31T03:45:59.744Z,10.30
2019-03-31T03:46:59.738Z,10.44
2019-03-31T03:47:59.667Z,10.41
2019-03-31T03:48:59.713Z,10.36
2019-03-31T03:49:59.579Z,10.38
2019-03-31T03:50:59.526Z,10.34
2019-03-31T03:51:59.486Z,10.30
2019-03-31T03:52:59.475Z,10.32
2019-03-31T03:53:59.466Z,10.27
2019-03-31T03:54:59.478Z,10.18
2019-03-31T03:55:59.349Z,10.27
2019-03-31T03:56:59.305Z,10.22
2019-03-31T03:57:59.236Z,10.20
2019-03-31T03:58:59.187Z,10.22
2019-03-31T03:59:59.146Z,10.14
2019-03-31T04:00:59.127Z,10.09
2019-03-31T04:01:59.099Z,10.12
2019-03-31T04:02:59.027Z,10.12
2019-03-31T04:03:58.977Z,10.09
2019-03-31T04:04:58.946Z,10.08
2019-03-31T04:05:58.899Z,10.14
2019-03-31T04:06:58.870Z,10.17
2019-03-31T04:07:58.838Z,10.14
2019-03-31T04:08:58.769Z,10.14
2019-03-31T04:09:58.721Z,10.11
2019-03-31T04:10:58.682Z,10.08
2019-03-31T04:11:58.666Z,10.08
2019-03-31T04:12:58.607Z,9.99
2019-03-31T04:13:58.568Z,9.97
2019-03-31T04:14:58.534Z,10.05
2019-03-31T04:15:58.476Z,10.07
2019-03-31T04:16:58.469Z,10.18
2019-03-31T04:17:58.395Z,10.18
2019-03-31T04:18:58.353Z,10.27
2019-03-31T04:19:58.307Z,10.18
2019-03-31T04:20:58.261Z,10.12
2019-03-31T04:21:58.215Z,10.27
2019-03-31T04:22:58.217Z,10.22
2019-03-31T04:23:58.183Z,10.18
2019-03-31T04:24:58.099Z,10.20
2019-03-31T04:25:58.052Z,10.22
2019-03-31T04:26:58.010Z,10.14
2019-03-31T04:27:57.973Z,10.12
2019-03-31T04:28:57.945Z,10.15
2019-03-31T04:29:57.907Z,10.08
2019-03-31T04:30:57.835Z,10.09
2019-03-31T04:31:57.797Z,9.96
2019-03-31T04:32:57.857Z,9.99
2019-03-31T04:33:57.715Z,10.08
2019-03-31T04:34:57.670Z,9.97
2019-03-31T04:35:57.644Z,10.02
2019-03-31T04:36:57.586Z,10.02
2019-03-31T04:37:57.548Z,10.12
2019-03-31T04:39:00.030Z,10.12
2019-03-31T04:39:57.464Z,10.08
2019-03-31T04:40:57.429Z,10.12
2019-03-31T04:41:57.368Z,10.09
2019-03-31T04:42:57.325Z,10.04
2019-03-31T04:43:57.284Z,10.07
2019-03-31T04:44:57.251Z,9.99
2019-03-31T04:45:57.228Z,10.02
2019-03-31T04:46:57.192Z,10.02
2019-03-31T04:47:57.116Z,10.09
2019-03-31T04:48:57.071Z,10.11
2019-03-31T04:49:57.024Z,10.09
2019-03-31T04:50:57.013Z,10.09
2019-03-31T04:51:56.948Z,10.07
2019-03-31T04:52:56.896Z,10.14
2019-03-31T04:53:56.861Z,10.11
2019-03-31T04:54:56.818Z,10.22
2019-03-31T04:55:56.773Z,10.22
2019-03-31T04:56:56.755Z,10.22
2019-03-31T04:57:56.696Z,10.25
2019-03-31T04:58:56.689Z,10.17
2019-03-31T04:59:56.608Z,10.17
2019-03-31T05:00:56.560Z,10.17
2019-03-31T05:01:56.519Z,10.17
2019-03-31T05:02:56.489Z,10.15
2019-03-31T05:04:04.622Z,10.08
2019-03-31T05:04:56.423Z,10.14
2019-03-31T05:05:56.358Z,10.02
2019-03-31T05:06:56.314Z,10.05
2019-03-31T05:07:56.288Z,10.07
2019-03-31T05:08:56.238Z,9.97
2019-03-31T05:09:56.179Z,10.02
2019-03-31T05:10:56.148Z,9.94
2019-03-31T05:11:56.123Z,9.89
2019-03-31T05:12:56.099Z,9.87
2019-03-31T05:13:56.023Z,9.87
2019-03-31T05:14:55.971Z,9.90
2019-03-31T05:15:55.923Z,9.86
2019-03-31T05:16:55.894Z,9.94
2019-03-31T05:17:55.852Z,9.86
2019-03-31T05:18:55.837Z,9.79
2019-03-31T05:19:55.760Z,9.84
2019-03-31T05:20:55.736Z,9.76
2019-03-31T05:21:55.669Z,9.81
2019-03-31T05:22:55.636Z,9.75
2019-03-31T05:23:55.597Z,9.72
2019-03-31T05:24:55.574Z,9.71
2019-03-31T05:25:55.524Z,9.83
2019-03-31T05:26:55.468Z,9.78
2019-03-31T05:27:55.416Z,9.86
2019-03-31T05:28:55.392Z,9.84
2019-03-31T05:29:55.333Z,9.79
2019-03-31T05:30:55.323Z,9.89
2019-03-31T05:31:55.246Z,9.84
2019-03-31T05:32:55.209Z,10.02
2019-03-31T05:33:55.160Z,10.05
2019-03-31T05:34:55.117Z,10.11
2019-03-31T05:35:55.074Z,10.11
2019-03-31T05:36:55.059Z,10.12
2019-03-31T05:37:54.998Z,10.17
2019-03-31T05:38:54.947Z,10.27
2019-03-31T05:39:54.906Z,10.25
2019-03-31T05:40:54.866Z,10.22
2019-03-31T05:41:54.850Z,10.17
2019-03-31T05:42:54.790Z,10.22
2019-03-31T05:44:05.208Z,10.23
2019-03-31T05:44:54.698Z,10.29
2019-03-31T05:45:54.651Z,10.30
2019-03-31T05:46:54.639Z,10.33
2019-03-31T05:47:54.565Z,10.36
2019-03-31T05:48:54.530Z,10.34
2019-03-31T05:49:54.496Z,10.40
2019-03-31T05:50:54.459Z,10.44
2019-03-31T05:51:54.401Z,10.56
2019-03-31T05:52:54.381Z,10.47
2019-03-31T05:53:54.319Z,10.60
2019-03-31T05:54:54.283Z,10.56
2019-03-31T05:55:54.266Z,10.53
2019-03-31T05:56:54.189Z,10.59
2019-03-31T05:57:54.142Z,10.81
2019-03-31T05:58:54.106Z,11.18
2019-03-31T05:59:54.067Z,11.32
2019-03-31T06:00:54.028Z,11.49
2019-03-31T06:01:54.007Z,11.72
2019-03-31T06:02:53.967Z,11.88
2019-03-31T06:03:53.900Z,11.82
2019-03-31T06:04:53.848Z,11.75
2019-03-31T06:05:53.806Z,11.61
2019-03-31T06:06:53.769Z,11.69
2019-03-31T06:07:53.738Z,11.51
2019-03-31T06:08:53.718Z,11.52
2019-03-31T06:09:53.645Z,11.55
2019-03-31T06:10:53.625Z,11.73
2019-03-31T06:11:53.796Z,12.01
2019-03-31T06:12:53.522Z,12.34
2019-03-31T06:13:53.478Z,12.54
2019-03-31T06:14:53.478Z,12.68
2019-03-31T06:15:53.400Z,12.83
2019-03-31T06:16:53.348Z,12.93
2019-03-31T06:17:53.315Z,13.05
2019-03-31T06:18:53.266Z,13.07
2019-03-31T06:19:53.248Z,13.25
2019-03-31T06:20:53.193Z,13.08
2019-03-31T06:21:53.150Z,13.23
2019-03-31T06:22:53.112Z,13.29
2019-03-31T06:23:53.094Z,13.39
2019-03-31T06:24:53.043Z,13.20
2019-03-31T06:25:52.979Z,12.89
2019-03-31T06:26:52.945Z,12.65
2019-03-31T06:27:52.906Z,12.31
2019-03-31T06:28:52.858Z,12.21
2019-03-31T06:29:52.837Z,12.21
2019-03-31T06:30:52.776Z,12.20
2019-03-31T06:31:52.732Z,12.02
2019-03-31T06:32:55.377Z,11.99
2019-03-31T06:33:52.660Z,11.94
2019-03-31T06:34:52.647Z,11.94
2019-03-31T06:35:52.581Z,11.82
2019-03-31T06:36:52.533Z,11.72
2019-03-31T06:37:52.492Z,11.65
2019-03-31T06:38:52.450Z,11.79
2019-03-31T06:39:52.407Z,11.76
2019-03-31T06:40:52.398Z,11.95
2019-03-31T06:41:52.339Z,11.95
2019-03-31T06:42:52.286Z,11.85
2019-03-31T06:43:52.243Z,12.02
2019-03-31T06:44:52.207Z,11.98
2019-03-31T06:45:52.193Z,11.95
2019-03-31T06:46:52.128Z,12.17
2019-03-31T06:47:52.122Z,12.02
2019-03-31T06:48:52.058Z,12.13
2019-03-31T06:49:52.003Z,12.28
2019-03-31T06:50:51.963Z,12.29
2019-03-31T06:51:51.949Z,12.23
2019-03-31T06:52:51.887Z,12.29
2019-03-31T06:53:51.846Z,12.14
2019-03-31T06:54:51.803Z,12.04
2019-03-31T06:55:51.764Z,12.13
2019-03-31T06:56:51.734Z,12.17
2019-03-31T06:57:51.681Z,12.14
2019-03-31T06:58:51.665Z,12.17
2019-03-31T06:59:51.607Z,12.17
2019-03-31T07:00:51.553Z,12.05
2019-03-31T07:01:51.543Z,12.02
2019-03-31T07:02:51.470Z,11.99
2019-03-31T07:03:51.431Z,12.05
2019-03-31T07:05:00.947Z,11.98
2019-03-31T07:05:51.359Z,11.95
2019-03-31T07:06:51.351Z,12.05
2019-03-31T07:07:51.330Z,11.98
2019-03-31T07:08:51.226Z,11.91
2019-03-31T07:09:51.211Z,11.99
2019-03-31T07:10:51.251Z,12.02
2019-03-31T07:11:51.136Z,11.98
2019-03-31T07:12:51.087Z,11.85
2019-03-31T07:13:51.033Z,11.86
2019-03-31T07:14:50.991Z,11.80
2019-03-31T07:15:50.942Z,11.94
2019-03-31T07:16:50.907Z,12.04
2019-03-31T07:17:50.911Z,12.05
2019-03-31T07:18:50.832Z,12.14
2019-03-31T07:19:50.786Z,12.34
2019-03-31T07:20:50.753Z,12.56
2019-03-31T07:21:50.713Z,12.67
2019-03-31T07:22:50.743Z,12.86
2019-03-31T07:23:50.776Z,12.79
2019-03-31T07:24:50.590Z,12.72
2019-03-31T07:25:50.546Z,13.03
2019-03-31T07:26:50.514Z,12.90
2019-03-31T07:27:50.506Z,12.97
2019-03-31T07:28:50.439Z,12.87
2019-03-31T07:29:50.389Z,12.93
2019-03-31T07:30:50.352Z,13.00
2019-03-31T07:31:50.416Z,12.95
2019-03-31T07:32:50.278Z,13.03
2019-03-31T07:33:50.243Z,13.03
2019-03-31T07:34:50.182Z,12.93
2019-03-31T07:35:50.146Z,12.89
2019-03-31T07:36:50.182Z,12.79
2019-03-31T07:37:50.069Z,12.54
2019-03-31T07:38:50.074Z,12.14
2019-03-31T07:39:50.423Z,11.99
2019-03-31T07:40:49.948Z,11.95
2019-03-31T07:41:50.110Z,11.86
2019-03-31T07:42:51.207Z,11.90
2019-03-31T07:43:49.834Z,11.86
2019-03-31T07:44:49.821Z,11.70
2019-03-31T07:45:49.760Z,11.78
2019-03-31T07:46:49.712Z,11.60
2019-03-31T07:47:49.666Z,11.51
2019-03-31T07:48:49.639Z,11.25
2019-03-31T07:49:49.598Z,11.11
2019-03-31T07:50:49.577Z,10.96
2019-03-31T07:51:49.642Z,10.85
2019-03-31T07:52:49.494Z,10.85
2019-03-31T07:53:49.435Z,10.71
2019-03-31T07:54:49.599Z,10.73
2019-03-31T07:55:49.348Z,10.63
2019-03-31T07:56:49.332Z,10.61
2019-03-31T07:57:49.271Z,10.61
2019-03-31T07:58:49.270Z,10.61
2019-03-31T07:59:49.227Z,10.64
2019-03-31T08:00:49.150Z,10.66
2019-03-31T08:01:49.100Z,10.53
2019-03-31T08:02:49.109Z,10.51
2019-03-31T08:03:49.045Z,10.38
2019-03-31T08:04:48.997Z,10.32
2019-03-31T08:05:48.966Z,10.32
2019-03-31T08:06:48.908Z,10.30
2019-03-31T08:07:48.857Z,10.23
2019-03-31T08:08:48.839Z,10.25
2019-03-31T08:09:48.988Z,10.25
2019-03-31T08:10:48.769Z,10.11
2019-03-31T08:11:48.711Z,10.11
2019-03-31T08:12:48.735Z,10.08
2019-03-31T08:13:48.618Z,9.96
2019-03-31T08:14:48.565Z,10.05
2019-03-31T08:15:48.694Z,10.08
2019-03-31T08:16:48.516Z,9.97
2019-03-31T08:17:48.461Z,9.96
2019-03-31T08:18:48.483Z,9.96
2019-03-31T08:19:48.365Z,9.74
2019-03-31T08:20:48.372Z,9.86
2019-03-31T08:21:48.537Z,9.79
2019-03-31T08:22:48.243Z,9.81
2019-03-31T08:23:48.207Z,9.71
2019-03-31T08:24:48.336Z,9.76
2019-03-31T08:25:48.108Z,9.69
2019-03-31T08:26:48.141Z,9.76
2019-03-31T08:27:48.028Z,9.64
2019-03-31T08:28:47.994Z,9.64
2019-03-31T08:29:55.643Z,9.68
2019-03-31T08:30:48.057Z,9.61
2019-03-31T08:31:47.873Z,9.57
2019-03-31T08:32:47.844Z,9.58
2019-03-31T08:33:47.952Z,9.57
2019-03-31T08:34:47.757Z,9.58
2019-03-31T08:35:48.028Z,9.56
2019-03-31T08:36:47.708Z,9.54
2019-03-31T08:37:47.608Z,9.65
2019-03-31T08:38:47.565Z,9.60
2019-03-31T08:39:47.536Z,9.54
2019-03-31T08:40:47.495Z,9.56
2019-03-31T08:41:47.447Z,9.60
2019-03-31T08:42:47.433Z,9.54
2019-03-31T08:43:47.360Z,9.65
2019-03-31T08:44:47.314Z,9.69
2019-03-31T08:45:47.266Z,9.61
2019-03-31T08:46:47.241Z,9.61
2019-03-31T08:47:47.243Z,9.66
2019-03-31T08:48:47.154Z,9.65
2019-03-31T08:49:47.112Z,9.66
2019-03-31T08:50:47.056Z,9.68
2019-03-31T08:51:47.037Z,9.72
2019-03-31T08:52:47.005Z,9.61
2019-03-31T08:53:46.953Z,9.64
2019-03-31T08:54:46.941Z,9.64
2019-03-31T08:55:46.859Z,9.71
2019-03-31T08:56:46.833Z,9.60
2019-03-31T08:57:46.993Z,9.57
2019-03-31T08:58:46.746Z,9.60
2019-03-31T08:59:46.681Z,9.56
2019-03-31T09:00:46.641Z,9.56
2019-03-31T09:01:46.634Z,9.61
2019-03-31T09:02:46.565Z,9.56
2019-03-31T09:03:46.540Z,9.50
2019-03-31T09:04:46.474Z,9.48
2019-03-31T09:06:00.691Z,9.46
2019-03-31T09:06:46.415Z,9.39
2019-03-31T09:07:46.357Z,9.39
2019-03-31T09:08:46.307Z,9.36
2019-03-31T09:09:46.258Z,9.31
2019-03-31T09:10:46.220Z,9.33
2019-03-31T09:11:46.208Z,9.32
2019-03-31T09:12:48.557Z,9.31
2019-03-31T09:13:46.097Z,9.39
2019-03-31T09:14:46.086Z,9.38
2019-03-31T09:15:46.031Z,9.32
2019-03-31T09:16:45.995Z,9.35
2019-03-31T09:17:45.937Z,9.33
2019-03-31T09:18:45.887Z,9.38
2019-03-31T09:19:45.841Z,9.33
2019-03-31T09:20:45.866Z,9.46
2019-03-31T09:21:45.863Z,9.38
2019-03-31T09:22:45.734Z,9.31
2019-03-31T09:23:45.671Z,9.43
2019-03-31T09:24:45.656Z,9.46
2019-03-31T09:25:47.604Z,9.46
2019-03-31T09:26:45.556Z,9.47
2019-03-31T09:27:45.597Z,9.40
2019-03-31T09:28:45.582Z,9.40
2019-03-31T09:29:45.427Z,9.38
2019-03-31T09:30:45.428Z,9.46
2019-03-31T09:31:45.412Z,9.39
2019-03-31T09:32:45.325Z,9.48
2019-03-31T09:33:45.265Z,9.46
2019-03-31T09:34:45.237Z,9.51
2019-03-31T09:35:45.201Z,9.48
2019-03-31T09:36:45.165Z,9.51
2019-03-31T09:37:45.083Z,9.57
2019-03-31T09:38:45.055Z,9.60
2019-03-31T09:39:45.007Z,9.51
2019-03-31T09:40:45.089Z,9.47
2019-03-31T09:41:44.943Z,9.56
2019-03-31T09:42:44.895Z,9.60
2019-03-31T09:43:44.898Z,9.64
2019-03-31T09:44:44.845Z,9.71
2019-03-31T09:45:44.894Z,9.79
2019-03-31T09:46:44.791Z,9.81
2019-03-31T09:47:44.671Z,9.76
2019-03-31T09:48:44.647Z,9.79
2019-03-31T09:49:44.634Z,9.78
2019-03-31T09:50:44.563Z,9.84
2019-03-31T09:51:44.529Z,9.89
2019-03-31T09:52:44.482Z,9.90
2019-03-31T09:53:44.485Z,9.84
2019-03-31T09:54:44.418Z,9.84
2019-03-31T09:55:44.396Z,9.81
2019-03-31T09:56:44.321Z,9.76
2019-03-31T09:57:44.305Z,9.81
2019-03-31T09:58:45.131Z,9.87
2019-03-31T09:59:44.169Z,9.87
2019-03-31T10:00:44.127Z,9.87
2019-03-31T10:01:44.208Z,9.87
2019-03-31T10:02:44.143Z,9.89
2019-03-31T10:03:44.188Z,9.99
2019-03-31T10:04:43.967Z,9.99
2019-03-31T10:05:47.477Z,9.86
2019-03-31T10:06:43.887Z,9.99
2019-03-31T10:07:43.866Z,10.04
2019-03-31T10:08:43.778Z,9.93
2019-03-31T10:09:43.729Z,9.96
2019-03-31T10:10:43.689Z,10.02
2019-03-31T10:11:43.648Z,10.07
2019-03-31T10:12:43.599Z,10.07
2019-03-31T10:13:43.603Z,10.09
2019-03-31T10:14:43.556Z,10.17
2019-03-31T10:15:43.522Z,10.12
2019-03-31T10:16:43.451Z,10.27
2019-03-31T10:17:43.412Z,10.26
2019-03-31T10:18:43.394Z,10.22
2019-03-31T10:19:43.336Z,10.18
2019-03-31T10:20:43.280Z,10.26
2019-03-31T10:21:43.230Z,10.18
2019-03-31T10:22:43.192Z,10.23
2019-03-31T10:23:43.142Z,10.25
2019-03-31T10:24:43.154Z,10.23
2019-03-31T10:25:43.073Z,10.15
2019-03-31T10:26:43.013Z,10.32
2019-03-31T10:27:42.975Z,10.30
2019-03-31T10:28:42.971Z,10.27
2019-03-31T10:29:42.922Z,10.36
2019-03-31T10:30:42.914Z,10.33
2019-03-31T10:31:42.821Z,10.38
2019-03-31T10:32:42.778Z,10.38
2019-03-31T10:33:42.742Z,10.41
2019-03-31T10:34:42.718Z,10.45
2019-03-31T10:35:42.655Z,10.48
2019-03-31T10:36:44.842Z,10.51
2019-03-31T10:37:42.575Z,10.45
2019-03-31T10:38:42.541Z,10.48
2019-03-31T10:39:42.550Z,10.47
2019-03-31T10:40:42.433Z,10.48
2019-03-31T10:41:42.397Z,10.48
2019-03-31T10:42:42.365Z,10.44
2019-03-31T10:43:42.318Z,10.42
2019-03-31T10:44:42.274Z,10.40
2019-03-31T10:45:42.261Z,10.34
2019-03-31T10:46:42.225Z,10.36
2019-03-31T10:47:42.158Z,10.44
2019-03-31T10:48:42.120Z,10.53
2019-03-31T10:49:42.087Z,10.64
2019-03-31T10:50:42.053Z,10.66
2019-03-31T10:51:42.014Z,10.66
2019-03-31T10:52:41.962Z,10.64
2019-03-31T10:53:41.898Z,10.63
2019-03-31T10:54:41.883Z,10.81
2019-03-31T10:55:41.823Z,10.79
2019-03-31T10:56:41.791Z,10.81
2019-03-31T10:57:41.770Z,10.71
2019-03-31T10:58:41.709Z,10.84
2019-03-31T10:59:41.672Z,10.84
2019-03-31T11:00:44.535Z,10.85
2019-03-31T11:01:41.605Z,10.94
2019-03-31T11:02:41.550Z,11.03
2019-03-31T11:03:41.523Z,11.07
2019-03-31T11:04:41.442Z,10.96
2019-03-31T11:05:41.418Z,11.02
2019-03-31T11:06:41.382Z,11.03
2019-03-31T11:07:41.346Z,11.09
2019-03-31T11:08:41.328Z,11.19
2019-03-31T11:09:41.260Z,11.17
2019-03-31T11:10:41.202Z,11.24
2019-03-31T11:11:41.166Z,11.18
2019-03-31T11:12:41.133Z,11.00
2019-03-31T11:13:41.090Z,11.11
2019-03-31T11:14:41.072Z,11.19
2019-03-31T11:15:40.998Z,11.19
2019-03-31T11:16:41.008Z,11.19
2019-03-31T11:17:40.924Z,11.28
2019-03-31T11:18:40.877Z,11.37
2019-03-31T11:19:40.845Z,11.47
2019-03-31T11:20:40.839Z,11.51
2019-03-31T11:21:40.768Z,11.36
2019-03-31T11:22:40.738Z,11.49
2019-03-31T11:23:40.674Z,11.57
2019-03-31T11:24:40.657Z,11.67
2019-03-31T11:25:40.590Z,11.69
2019-03-31T11:26:40.553Z,11.90
2019-03-31T11:27:43.727Z,12.07
2019-03-31T11:28:40.489Z,12.20
2019-03-31T11:29:40.469Z,11.95
2019-03-31T11:30:40.377Z,12.05
2019-03-31T11:31:40.359Z,12.19
2019-03-31T11:32:40.314Z,12.23
2019-03-31T11:33:40.265Z,12.21
2019-03-31T11:34:40.224Z,12.29
2019-03-31T11:35:40.233Z,12.47
2019-03-31T11:36:40.153Z,12.53
2019-03-31T11:37:40.113Z,12.62
2019-03-31T11:38:40.077Z,12.77
2019-03-31T11:39:40.052Z,12.93
2019-03-31T11:40:40.040Z,12.86
2019-03-31T11:41:39.978Z,12.82
2019-03-31T11:42:39.916Z,12.95
2019-03-31T11:43:39.873Z,12.97
2019-03-31T11:44:39.821Z,13.04
2019-03-31T11:45:39.819Z,13.03
2019-03-31T11:46:39.760Z,13.25
2019-03-31T11:47:39.711Z,13.19
2019-03-31T11:48:39.682Z,13.14
2019-03-31T11:49:39.643Z,13.30
2019-03-31T11:50:39.631Z,13.36
2019-03-31T11:51:39.558Z,13.51
2019-03-31T11:52:39.526Z,13.44
2019-03-31T11:53:39.495Z,13.38
2019-03-31T11:54:39.452Z,13.45
2019-03-31T11:55:39.429Z,13.67
2019-03-31T11:56:39.382Z,13.85
2019-03-31T11:57:39.326Z,13.87
2019-03-31T11:58:39.331Z,14.00
2019-03-31T11:59:39.251Z,14.18
2019-03-31T12:00:39.221Z,14.35
2019-03-31T12:01:39.183Z,14.14
2019-03-31T12:02:39.173Z,14.20
2019-03-31T12:03:39.106Z,14.29
2019-03-31T12:04:39.090Z,14.21
2019-03-31T12:05:39.099Z,14.12
2019-03-31T12:06:39.014Z,13.96
2019-03-31T12:07:46.611Z,13.60
2019-03-31T12:08:38.963Z,13.59
2019-03-31T12:09:38.900Z,13.87
2019-03-31T12:10:38.878Z,14.04
2019-03-31T12:11:38.852Z,13.78
2019-03-31T12:12:38.787Z,13.95
2019-03-31T12:13:38.766Z,13.82
2019-03-31T12:14:38.740Z,13.52
2019-03-31T12:15:38.699Z,13.69
2019-03-31T12:16:38.652Z,13.78
2019-03-31T12:17:38.606Z,14.00
2019-03-31T12:18:38.600Z,14.12
2019-03-31T12:19:38.558Z,14.24
2019-03-31T12:20:38.540Z,14.20
2019-03-31T12:21:38.494Z,14.24
2019-03-31T12:22:38.459Z,14.22
2019-03-31T12:23:38.413Z,14.32
2019-03-31T12:24:38.371Z,13.85
2019-03-31T12:25:38.337Z,13.81
2019-03-31T12:26:38.344Z,13.79
2019-03-31T12:27:38.287Z,13.77
2019-03-31T12:28:38.249Z,13.95
2019-03-31T12:29:38.203Z,14.40
2019-03-31T12:30:38.171Z,14.64
2019-03-31T12:31:38.150Z,14.37
2019-03-31T12:32:38.852Z,14.27
2019-03-31T12:33:38.083Z,14.17
2019-03-31T12:34:38.030Z,14.20
2019-03-31T12:35:37.989Z,14.40
2019-03-31T12:36:37.971Z,14.51
2019-03-31T12:37:42.914Z,14.60
2019-03-31T12:38:37.916Z,14.65
2019-03-31T12:39:37.854Z,14.77
2019-03-31T12:40:37.819Z,14.68
2019-03-31T12:41:37.783Z,14.75
2019-03-31T12:42:37.770Z,14.54
2019-03-31T12:43:37.748Z,14.32
2019-03-31T12:44:37.697Z,14.21
2019-03-31T12:45:37.657Z,14.25
2019-03-31T12:46:37.616Z,14.20
2019-03-31T12:47:37.587Z,14.12
2019-03-31T12:48:37.569Z,14.25
2019-03-31T12:49:37.497Z,14.40
2019-03-31T12:50:37.491Z,14.50
2019-03-31T12:51:37.455Z,14.45
2019-03-31T12:52:46.740Z,14.43
2019-03-31T12:53:37.406Z,14.45
2019-03-31T12:54:37.341Z,14.24
2019-03-31T12:55:37.308Z,13.96
2019-03-31T12:56:37.297Z,14.04
2019-03-31T12:57:37.253Z,14.03
2019-03-31T12:58:37.242Z,14.09
2019-03-31T12:59:37.170Z,13.96
2019-03-31T13:00:37.148Z,13.97
2019-03-31T13:01:37.104Z,13.82
2019-03-31T13:02:37.079Z,13.92